Time;durP1;ratioP1;P1;durP2;ratioP2;P2;SDS_P1;SDS_P2;PMS_P1;PMS_P2;Temp;Humidity;BMP_temperature;BMP_pressure;BME280_temperature;BME280_humidity;BME280_pressure;Samples;Min_cycle;Max_cycle;Signal;HPM_P1;HPM_P2
2022/07/19 00:00:18;;;;;;;2.65;1.40;;;;;;;;;;5051431;28;20060;-48
2022/07/19 00:02:44;;;;;;;5.70;1.85;;;;;;;;;;5032864;28;20343;-49
2022/07/19 00:05:10;;;;;;;3.33;1.70;;;;;;;;;;5046879;28;20037;-49
2022/07/19 00:07:36;;;;;;;3.10;1.75;;;;;;;;;;5050178;28;20029;-50
2022/07/19 00:10:04;;;;;;;1.77;1.65;;;;;;;;;;5051648;28;20021;-50
2022/07/19 00:12:30;;;;;;;5.80;2.22;;;;;;;;;;5051186;28;20025;-46
2022/07/19 00:14:56;;;;;;;2.65;1.85;;;;;;;;;;5050679;28;20131;-48
2022/07/19 00:17:22;;;;;;;2.55;1.83;;;;;;;;;;5050147;28;20029;-48
2022/07/19 00:19:48;;;;;;;7.15;1.90;;;;;;;;;;5051427;28;20025;-47
2022/07/19 00:22:14;;;;;;;4.50;2.05;;;;;;;;;;5048638;28;20035;-49
2022/07/19 00:24:40;;;;;;;4.72;1.65;;;;;;;;;;5048331;28;20029;-47
2022/07/19 00:27:06;;;;;;;2.67;2.15;;;;;;;;;;5051194;28;20037;-48
2022/07/19 00:29:32;;;;;;;3.25;1.77;;;;;;;;;;5050347;28;20025;-49
2022/07/19 00:31:58;;;;;;;2.22;1.70;;;;;;;;;;5051083;28;20501;-49
2022/07/19 00:34:24;;;;;;;5.88;2.28;;;;;;;;;;5051146;28;20025;-48
2022/07/19 00:36:50;;;;;;;5.00;2.10;;;;;;;;;;5050411;28;20678;-49
2022/07/19 00:39:16;;;;;;;3.03;1.70;;;;;;;;;;5051892;28;20086;-47
2022/07/19 00:41:43;;;;;;;4.78;1.77;;;;;;;;;;5045844;28;20025;-49
2022/07/19 00:44:10;;;;;;;3.45;2.10;;;;;;;;;;5051056;28;20036;-48
2022/07/19 00:46:36;;;;;;;3.30;2.22;;;;;;;;;;5050023;28;20032;-49
2022/07/19 00:49:03;;;;;;;2.13;1.58;;;;;;;;;;5051183;28;20025;-48
2022/07/19 00:51:29;;;;;;;3.03;1.90;;;;;;;;;;5051082;28;20082;-48
2022/07/19 00:53:56;;;;;;;7.28;2.30;;;;;;;;;;5050488;28;20137;-48
2022/07/19 00:56:23;;;;;;;5.57;1.75;;;;;;;;;;5052664;28;20029;-47
2022/07/19 00:58:49;;;;;;;3.30;1.85;;;;;;;;;;5051455;28;20147;-48
2022/07/19 01:01:15;;;;;;;6.65;1.85;;;;;;;;;;5055030;28;20021;-48
2022/07/19 01:03:41;;;;;;;4.53;1.90;;;;;;;;;;5059813;28;20495;-49
2022/07/19 01:06:08;;;;;;;3.17;1.95;;;;;;;;;;5056959;28;20073;-50
2022/07/19 01:08:35;;;;;;;5.55;2.00;;;;;;;;;;5039857;28;20029;-47
2022/07/19 01:11:03;;;;;;;3.15;1.80;;;;;;;;;;5062225;28;20021;-49
2022/07/19 01:13:29;;;;;;;3.67;2.10;;;;;;;;;;5054063;28;20025;-48
2022/07/19 01:15:55;;;;;;;5.35;1.98;;;;;;;;;;5050430;28;20059;-49
2022/07/19 01:18:21;;;;;;;3.10;1.98;;;;;;;;;;5053544;28;20481;-49
2022/07/19 01:20:47;;;;;;;2.63;1.90;;;;;;;;;;5052563;28;20083;-52
2022/07/19 01:23:13;;;;;;;5.32;1.88;;;;;;;;;;5053870;28;20462;-55
2022/07/19 01:25:39;;;;;;;3.13;2.10;;;;;;;;;;5053102;28;20033;-48
2022/07/19 01:28:06;;;;;;;4.80;2.25;;;;;;;;;;5053885;28;20057;-49
2022/07/19 01:30:32;;;;;;;3.70;2.10;;;;;;;;;;5053439;28;20440;-51
2022/07/19 01:32:58;;;;;;;4.63;1.88;;;;;;;;;;5047582;28;20047;-47
2022/07/19 01:35:24;;;;;;;3.58;1.80;;;;;;;;;;5052938;28;20498;-46
2022/07/19 01:37:51;;;;;;;2.35;1.80;;;;;;;;;;5052258;28;20036;-51
2022/07/19 01:40:17;;;;;;;3.63;1.90;;;;;;;;;;5053944;28;20032;-51
2022/07/19 01:42:44;;;;;;;3.55;2.00;;;;;;;;;;5056421;28;20104;-52
2022/07/19 01:45:11;;;;;;;1.90;1.70;;;;;;;;;;5053580;28;20033;-50
2022/07/19 01:47:37;;;;;;;2.30;1.88;;;;;;;;;;5053141;28;20505;-45
2022/07/19 01:50:04;;;;;;;4.35;1.92;;;;;;;;;;5053721;28;20025;-50
2022/07/19 01:52:30;;;;;;;1.73;1.60;;;;;;;;;;5045519;28;20029;-49
2022/07/19 01:54:56;;;;;;;2.78;1.70;;;;;;;;;;5053155;28;20588;-48
2022/07/19 01:57:22;;;;;;;3.45;1.70;;;;;;;;;;5054317;28;20029;-49
2022/07/19 01:59:48;;;;;;;5.28;2.03;;;;;;;;;;5052778;28;20025;-48
2022/07/19 02:02:14;;;;;;;2.28;1.65;;;;;;;;;;5053692;28;20029;-48
2022/07/19 02:04:40;;;;;;;4.38;2.10;;;;;;;;;;5052812;28;20100;-48
2022/07/19 02:07:06;;;;;;;2.65;1.60;;;;;;;;;;5048376;28;20430;-48
2022/07/19 02:09:32;;;;;;;4.30;1.92;;;;;;;;;;5053176;28;20036;-48
2022/07/19 02:11:58;;;;;;;10.88;3.20;;;;;;;;;;5034951;28;20600;-49
2022/07/19 02:14:24;;;;;;;2.47;1.80;;;;;;;;;;5053537;28;20033;-51
2022/07/19 02:16:50;;;;;;;2.95;2.00;;;;;;;;;;5052242;28;20462;-48
2022/07/19 02:19:16;;;;;;;3.15;1.70;;;;;;;;;;5053469;28;20104;-49
2022/07/19 02:21:42;;;;;;;3.53;1.70;;;;;;;;;;5049400;28;20025;-48
2022/07/19 02:24:08;;;;;;;4.18;1.52;;;;;;;;;;5053568;28;20032;-48
2022/07/19 02:26:35;;;;;;;3.08;1.60;;;;;;;;;;5052771;28;20057;-49
2022/07/19 02:29:01;;;;;;;4.43;1.92;;;;;;;;;;5048147;28;20037;-51
2022/07/19 02:31:27;;;;;;;2.78;1.65;;;;;;;;;;5053527;28;20033;-51
2022/07/19 02:33:53;;;;;;;2.97;1.98;;;;;;;;;;5050684;28;20036;-52
2022/07/19 02:36:19;;;;;;;2.75;2.17;;;;;;;;;;5053248;28;20059;-48
2022/07/19 02:38:45;;;;;;;5.63;1.83;;;;;;;;;;5052555;28;20044;-48
2022/07/19 02:41:13;;;;;;;3.05;2.00;;;;;;;;;;5060327;28;20028;-48
2022/07/19 02:43:39;;;;;;;2.60;1.70;;;;;;;;;;5047565;28;20039;-45
2022/07/19 02:46:05;;;;;;;2.20;1.60;;;;;;;;;;5049494;28;20021;-49
2022/07/19 02:48:31;;;;;;;2.90;1.70;;;;;;;;;;5052953;28;20105;-48
2022/07/19 02:50:58;;;;;;;3.75;2.00;;;;;;;;;;5052003;28;20880;-49
2022/07/19 02:53:24;;;;;;;4.50;1.48;;;;;;;;;;5051009;28;20028;-48
2022/07/19 02:55:50;;;;;;;2.97;1.83;;;;;;;;;;5052053;28;20067;-45
2022/07/19 02:58:16;;;;;;;2.67;1.67;;;;;;;;;;5052826;28;20052;-48
2022/07/19 03:00:42;;;;;;;2.42;1.50;;;;;;;;;;5050737;28;20025;-45
2022/07/19 03:05:53;;;;;;;2.67;1.92;;;;;;;;;;5042003;28;20056;-47
2022/07/19 03:08:19;;;;;;;3.95;1.70;;;;;;;;;;5050703;28;20033;-49
2022/07/19 03:10:45;;;;;;;3.25;1.75;;;;;;;;;;5043708;28;20017;-51
2022/07/19 03:13:11;;;;;;;4.38;2.40;;;;;;;;;;5052262;28;20108;-48
2022/07/19 03:15:37;;;;;;;2.70;1.50;;;;;;;;;;5052133;28;20029;-49
2022/07/19 03:18:03;;;;;;;2.85;2.10;;;;;;;;;;5046020;28;20029;-48
2022/07/19 03:20:29;;;;;;;6.50;1.83;;;;;;;;;;5052365;28;20033;-49
2022/07/19 03:22:55;;;;;;;3.13;1.60;;;;;;;;;;5051456;28;20122;-49
2022/07/19 03:25:21;;;;;;;2.13;1.73;;;;;;;;;;5052364;28;20017;-49
2022/07/19 03:27:48;;;;;;;4.30;1.63;;;;;;;;;;5051406;28;20049;-47
2022/07/19 03:30:14;;;;;;;4.07;1.80;;;;;;;;;;5051951;28;20049;-49
2022/07/19 03:32:40;;;;;;;2.92;1.67;;;;;;;;;;5051956;28;20481;-46
2022/07/19 03:35:06;;;;;;;3.80;1.73;;;;;;;;;;5050011;28;20040;-52
2022/07/19 03:37:32;;;;;;;5.63;1.77;;;;;;;;;;5048539;28;20033;-48
2022/07/19 03:39:58;;;;;;;2.58;1.48;;;;;;;;;;5051286;28;20060;-49
2022/07/19 03:42:24;;;;;;;3.20;1.80;;;;;;;;;;5052288;28;20389;-49
2022/07/19 03:44:51;;;;;;;4.90;2.20;;;;;;;;;;5051358;28;20068;-48
2022/07/19 03:47:16;;;;;;;2.10;1.65;;;;;;;;;;5051870;28;20025;-49
2022/07/19 03:49:43;;;;;;;1.98;1.38;;;;;;;;;;5043550;28;20029;-45
2022/07/19 03:52:09;;;;;;;2.55;1.60;;;;;;;;;;5047731;28;20470;-49
2022/07/19 03:54:35;;;;;;;3.05;1.73;;;;;;;;;;5042343;28;20034;-48
2022/07/19 03:57:01;;;;;;;1.90;1.35;;;;;;;;;;5045952;28;20029;-49
2022/07/19 03:59:27;;;;;;;3.67;1.85;;;;;;;;;;5044984;28;20025;-51
2022/07/19 04:01:53;;;;;;;4.35;2.00;;;;;;;;;;5045894;28;20028;-48
2022/07/19 04:04:19;;;;;;;2.95;1.40;;;;;;;;;;5049939;28;20021;-49
2022/07/19 04:06:45;;;;;;;2.80;1.48;;;;;;;;;;5031257;28;20048;-45
2022/07/19 04:09:11;;;;;;;3.33;1.55;;;;;;;;;;5049580;28;20029;-48
2022/07/19 04:11:37;;;;;;;3.63;2.00;;;;;;;;;;5045284;28;20033;-48
2022/07/19 04:14:03;;;;;;;3.17;1.63;;;;;;;;;;5049294;28;20100;-52
2022/07/19 04:16:30;;;;;;;4.03;1.83;;;;;;;;;;5048526;28;20028;-50
2022/07/19 04:18:56;;;;;;;4.60;1.95;;;;;;;;;;5048553;28;20082;-48
2022/07/19 04:21:22;;;;;;;2.72;1.75;;;;;;;;;;5049806;28;20025;-49
2022/07/19 04:23:48;;;;;;;3.22;1.80;;;;;;;;;;5049396;28;20385;-48
2022/07/19 04:26:14;;;;;;;5.25;2.15;;;;;;;;;;5049667;28;20021;-49
2022/07/19 04:28:40;;;;;;;3.67;1.70;;;;;;;;;;5049086;28;20037;-49
2022/07/19 04:31:06;;;;;;;5.63;2.38;;;;;;;;;;5045391;28;20043;-48
2022/07/19 04:33:32;;;;;;;3.95;1.55;;;;;;;;;;5050585;28;20049;-48
2022/07/19 04:35:58;;;;;;;2.20;1.70;;;;;;;;;;5049715;28;20468;-52
2022/07/19 04:38:24;;;;;;;3.47;1.70;;;;;;;;;;5051137;28;20465;-50
2022/07/19 04:40:50;;;;;;;2.90;2.03;;;;;;;;;;5050523;28;20474;-51
2022/07/19 04:43:17;;;;;;;5.10;1.70;;;;;;;;;;5051093;28;20428;-50
2022/07/19 04:45:44;;;;;;;5.40;1.58;;;;;;;;;;5045928;28;20022;-46
2022/07/19 04:48:10;;;;;;;2.97;2.17;;;;;;;;;;5050321;28;20112;-47
2022/07/19 04:50:37;;;;;;;4.10;2.05;;;;;;;;;;5050206;28;20466;-51
2022/07/19 04:53:03;;;;;;;2.63;1.80;;;;;;;;;;5047614;28;20045;-48
2022/07/19 04:55:29;;;;;;;4.05;2.05;;;;;;;;;;5051152;28;20060;-48
2022/07/19 04:57:55;;;;;;;3.85;2.20;;;;;;;;;;5049972;28;20056;-50
2022/07/19 05:00:21;;;;;;;3.53;2.25;;;;;;;;;;5050783;28;20454;-49
2022/07/19 05:02:47;;;;;;;2.72;2.22;;;;;;;;;;5050246;28;20117;-45
2022/07/19 05:05:14;;;;;;;3.28;2.10;;;;;;;;;;5046345;28;20052;-47
2022/07/19 05:07:40;;;;;;;3.38;1.80;;;;;;;;;;5050869;28;20029;-47
2022/07/19 05:10:06;;;;;;;3.95;2.03;;;;;;;;;;5050218;28;20013;-48
2022/07/19 05:12:32;;;;;;;5.28;2.28;;;;;;;;;;5050482;28;20021;-47
2022/07/19 05:14:58;;;;;;;5.90;2.72;;;;;;;;;;5049983;28;20378;-49
2022/07/19 05:17:25;;;;;;;4.53;2.30;;;;;;;;;;5050939;28;20074;-50
2022/07/19 05:19:51;;;;;;;4.55;2.20;;;;;;;;;;5050030;28;20020;-49
2022/07/19 05:22:17;;;;;;;4.55;2.47;;;;;;;;;;5047325;28;20044;-50
2022/07/19 05:24:43;;;;;;;3.67;2.33;;;;;;;;;;5049644;28;20055;-48
2022/07/19 05:27:09;;;;;;;7.75;2.78;;;;;;;;;;5049068;28;20060;-51
2022/07/19 05:29:36;;;;;;;4.22;2.15;;;;;;;;;;5049553;28;20110;-50
2022/07/19 05:32:02;;;;;;;4.18;2.50;;;;;;;;;;5048230;28;20099;-50
2022/07/19 05:34:28;;;;;;;3.78;2.28;;;;;;;;;;5049240;28;20044;-52
2022/07/19 05:36:54;;;;;;;5.07;2.35;;;;;;;;;;5049772;28;20036;-55
2022/07/19 05:39:20;;;;;;;6.40;2.10;;;;;;;;;;5047316;28;20370;-51
2022/07/19 05:41:46;;;;;;;6.07;2.42;;;;;;;;;;5049877;28;20025;-46
2022/07/19 05:44:12;;;;;;;9.57;3.03;;;;;;;;;;5052967;28;20075;-48
2022/07/19 05:46:40;;;;;;;6.43;2.70;;;;;;;;;;5053841;28;20025;-51
2022/07/19 05:49:08;;;;;;;5.72;2.83;;;;;;;;;;5053005;28;20045;-45
2022/07/19 05:51:34;;;;;;;4.63;2.78;;;;;;;;;;5050444;28;20033;-55
2022/07/19 05:54:00;;;;;;;5.88;2.80;;;;;;;;;;5053139;28;20021;-49
2022/07/19 05:56:27;;;;;;;7.00;3.55;;;;;;;;;;5050075;28;20063;-52
2022/07/19 05:58:53;;;;;;;4.78;2.75;;;;;;;;;;5053042;28;20029;-53
2022/07/19 06:01:19;;;;;;;4.72;2.35;;;;;;;;;;5053869;28;20348;-52
2022/07/19 06:03:47;;;;;;;7.95;3.25;;;;;;;;;;5045755;28;20024;-52
2022/07/19 06:06:13;;;;;;;8.10;3.50;;;;;;;;;;5052014;28;20095;-52
2022/07/19 06:08:39;;;;;;;7.53;3.67;;;;;;;;;;5052966;28;20235;-47
2022/07/19 06:11:06;;;;;;;9.15;3.20;;;;;;;;;;5053009;28;20021;-48
2022/07/19 06:13:32;;;;;;;7.32;3.00;;;;;;;;;;5052163;28;20097;-52
2022/07/19 06:15:58;;;;;;;6.40;2.70;;;;;;;;;;5050186;28;20025;-51
2022/07/19 06:18:24;;;;;;;6.45;2.92;;;;;;;;;;5053006;28;20028;-52
2022/07/19 06:20:50;;;;;;;5.70;3.10;;;;;;;;;;5052869;28;20020;-47
2022/07/19 06:23:16;;;;;;;5.60;2.90;;;;;;;;;;5052940;28;20481;-52
2022/07/19 06:25:42;;;;;;;6.40;3.08;;;;;;;;;;5052614;28;20108;-54
2022/07/19 06:28:07;;;;;;;6.97;2.38;;;;;;;;;;5052829;28;20051;-54
2022/07/19 06:30:34;;;;;;;7.00;2.80;;;;;;;;;;5049492;28;20111;-54
2022/07/19 06:33:00;;;;;;;5.53;3.03;;;;;;;;;;5035705;28;20025;-56
2022/07/19 06:35:26;;;;;;;6.88;2.88;;;;;;;;;;5056117;28;20021;-56
2022/07/19 06:37:52;;;;;;;5.50;2.70;;;;;;;;;;5049083;28;20211;-46
2022/07/19 06:40:18;;;;;;;5.88;2.80;;;;;;;;;;5047435;28;20393;-52
2022/07/19 06:42:44;;;;;;;7.13;3.17;;;;;;;;;;5050075;28;20536;-50
2022/07/19 06:45:10;;;;;;;5.68;2.92;;;;;;;;;;5050163;28;20025;-53
2022/07/19 06:47:37;;;;;;;5.93;2.92;;;;;;;;;;5050418;28;20029;-51
2022/07/19 06:50:03;;;;;;;4.50;2.70;;;;;;;;;;5050930;28;20374;-53
2022/07/19 06:52:29;;;;;;;5.95;3.05;;;;;;;;;;5049647;28;20059;-54
2022/07/19 06:54:55;;;;;;;4.90;2.63;;;;;;;;;;5050839;28;20061;-54
2022/07/19 06:57:21;;;;;;;8.43;3.83;;;;;;;;;;5053051;28;20039;-50
2022/07/19 06:59:47;;;;;;;6.72;2.35;;;;;;;;;;5052906;28;20025;-52
2022/07/19 07:02:13;;;;;;;6.25;2.40;;;;;;;;;;5050059;28;20028;-54
2022/07/19 07:04:39;;;;;;;3.78;2.13;;;;;;;;;;5051829;28;20467;-52
2022/07/19 07:07:05;;;;;;;5.18;2.60;;;;;;;;;;5051471;28;20040;-55
2022/07/19 07:09:31;;;;;;;6.68;2.95;;;;;;;;;;5046264;28;20083;-47
2022/07/19 07:11:57;;;;;;;2.97;2.20;;;;;;;;;;5047396;28;20833;-52
2022/07/19 07:14:23;;;;;;;6.60;2.90;;;;;;;;;;5051537;28;20033;-46
2022/07/19 07:16:49;;;;;;;6.78;2.42;;;;;;;;;;5044915;28;20032;-54
2022/07/19 07:19:15;;;;;;;5.63;3.40;;;;;;;;;;5053220;28;20021;-53
2022/07/19 07:21:41;;;;;;;6.13;2.50;;;;;;;;;;5051090;28;20021;-55
2022/07/19 07:24:07;;;;;;;4.32;2.60;;;;;;;;;;5050456;28;20083;-47
2022/07/19 07:26:33;;;;;;;3.80;2.95;;;;;;;;;;5049453;28;20474;-52
2022/07/19 07:28:59;;;;;;;8.23;3.10;;;;;;;;;;5049266;28;20425;-51
2022/07/19 07:31:25;;;;;;;4.60;2.55;;;;;;;;;;5052868;28;20025;-51
2022/07/19 07:33:51;;;;;;;5.18;2.50;;;;;;;;;;5051264;28;20476;-49
2022/07/19 07:36:17;;;;;;;4.35;3.08;;;;;;;;;;5051096;28;20033;-53
2022/07/19 07:38:43;;;;;;;5.82;2.42;;;;;;;;;;5050299;28;20035;-55
2022/07/19 07:41:09;;;;;;;4.03;2.40;;;;;;;;;;5043803;28;20079;-52
2022/07/19 07:43:36;;;;;;;4.38;2.58;;;;;;;;;;5052177;28;20025;-52
2022/07/19 07:46:02;;;;;;;4.25;2.38;;;;;;;;;;5051631;28;20028;-53
2022/07/19 07:48:28;;;;;;;3.85;2.38;;;;;;;;;;5050392;28;20489;-49
2022/07/19 07:50:54;;;;;;;4.90;2.00;;;;;;;;;;5049776;28;20104;-48
2022/07/19 07:53:20;;;;;;;3.80;2.75;;;;;;;;;;5047586;28;20021;-51
2022/07/19 07:55:46;;;;;;;3.53;2.15;;;;;;;;;;5050403;28;20025;-53
2022/07/19 07:58:12;;;;;;;5.65;2.47;;;;;;;;;;5050259;28;20090;-52
2022/07/19 08:00:39;;;;;;;3.67;2.28;;;;;;;;;;5050615;28;20424;-48
2022/07/19 08:03:05;;;;;;;4.30;2.05;;;;;;;;;;5050295;28;20028;-52
2022/07/19 08:05:31;;;;;;;4.80;2.33;;;;;;;;;;5035250;28;20047;-54
2022/07/19 08:07:57;;;;;;;4.22;2.30;;;;;;;;;;5031814;28;20041;-52
2022/07/19 08:10:25;;;;;;;4.38;2.22;;;;;;;;;;5031769;28;20055;-49
2022/07/19 08:12:51;;;;;;;3.17;2.00;;;;;;;;;;5030953;28;20029;-47
2022/07/19 08:15:17;;;;;;;3.20;1.92;;;;;;;;;;5030468;28;20041;-51
2022/07/19 08:17:43;;;;;;;2.70;1.83;;;;;;;;;;5032105;28;20030;-49
2022/07/19 08:20:10;;;;;;;3.15;1.80;;;;;;;;;;5030004;28;20382;-49
2022/07/19 08:22:36;;;;;;;3.60;2.15;;;;;;;;;;5030287;28;20029;-48
2022/07/19 08:25:02;;;;;;;4.53;1.98;;;;;;;;;;5027991;28;20045;-49
2022/07/19 08:27:28;;;;;;;3.58;2.17;;;;;;;;;;5030914;28;20033;-49
2022/07/19 08:29:54;;;;;;;4.45;1.60;;;;;;;;;;5030640;28;20025;-45
2022/07/19 08:32:21;;;;;;;2.67;1.70;;;;;;;;;;5030741;28;20080;-50
2022/07/19 08:34:46;;;;;;;3.63;1.85;;;;;;;;;;5030594;28;20393;-51
2022/07/19 08:37:12;;;;;;;3.20;1.67;;;;;;;;;;5030186;28;20030;-49
2022/07/19 08:39:38;;;;;;;5.07;1.50;;;;;;;;;;5030467;28;20028;-49
2022/07/19 08:42:04;;;;;;;2.67;1.63;;;;;;;;;;5029808;28;20021;-52
2022/07/19 08:44:35;;;;;;;3.85;1.95;;;;;;;;;;5031220;28;20025;-48
2022/07/19 08:47:01;;;;;;;4.18;1.52;;;;;;;;;;5025130;28;20033;-49
2022/07/19 08:49:27;;;;;;;2.60;1.50;;;;;;;;;;5028687;28;20052;-51
2022/07/19 08:51:53;;;;;;;3.25;1.83;;;;;;;;;;5024214;28;20032;-45
2022/07/19 08:54:19;;;;;;;2.45;1.70;;;;;;;;;;5030390;28;20067;-51
2022/07/19 08:59:31;;;;;;;3.47;1.70;;;;;;;;;;5030094;28;20032;-49
2022/07/19 09:01:57;;;;;;;2.65;1.70;;;;;;;;;;5030304;28;20022;-45
2022/07/19 09:04:28;;;;;;;3.92;1.48;;;;;;;;;;5030646;28;20034;-48
2022/07/19 09:06:56;;;;;;;3.95;1.90;;;;;;;;;;5050424;28;20025;-47
2022/07/19 09:09:24;;;;;;;2.58;1.60;;;;;;;;;;5050293;28;20079;-51
2022/07/19 09:11:51;;;;;;;1.55;1.40;;;;;;;;;;5049767;28;20017;-50
2022/07/19 09:14:20;;;;;;;4.78;1.75;;;;;;;;;;5050059;28;20462;-51
2022/07/19 09:17:01;;;;;;;2.72;1.52;;;;;;;;;;5052461;28;20043;-51
2022/07/19 09:19:27;;;;;;;2.78;1.70;;;;;;;;;;5054493;28;20029;-51
2022/07/19 09:22:03;;;;;;;2.67;1.50;;;;;;;;;;5054009;28;20044;-48
2022/07/19 09:24:31;;;;;;;4.75;1.60;;;;;;;;;;5053760;28;20021;-48
2022/07/19 09:26:58;;;;;;;2.10;1.60;;;;;;;;;;5053442;28;20060;-45
2022/07/19 09:29:24;;;;;;;2.67;1.58;;;;;;;;;;5054293;28;20022;-51
2022/07/19 09:32:00;;;;;;;2.97;1.75;;;;;;;;;;5054516;28;20025;-50
2022/07/19 09:34:33;;;;;;;3.72;1.60;;;;;;;;;;5054026;28;20017;-51
2022/07/19 09:37:08;;;;;;;12.18;3.08;;;;;;;;;;5053405;28;20474;-48
2022/07/19 09:39:34;;;;;;;2.42;1.30;;;;;;;;;;5054107;28;20029;-52
2022/07/19 09:42:02;;;;;;;2.70;1.67;;;;;;;;;;5052817;28;20032;-48
2022/07/19 09:44:29;;;;;;;3.72;1.70;;;;;;;;;;5053636;28;20420;-48
2022/07/19 09:46:55;;;;;;;3.50;1.30;;;;;;;;;;5053647;28;20036;-46
2022/07/19 09:49:21;;;;;;;2.33;1.52;;;;;;;;;;5053062;28;20031;-50
2022/07/19 09:51:49;;;;;;;2.05;1.48;;;;;;;;;;5053894;28;20478;-51
2022/07/19 09:54:19;;;;;;;3.00;2.03;;;;;;;;;;5053868;28;20035;-49
2022/07/19 09:56:46;;;;;;;1.75;1.60;;;;;;;;;;5045127;28;20536;-48
2022/07/19 09:59:13;;;;;;;1.55;1.17;;;;;;;;;;5052732;28;20553;-48
2022/07/19 10:01:39;;;;;;;3.15;1.33;;;;;;;;;;5053688;28;20088;-47
2022/07/19 10:04:09;;;;;;;3.53;1.48;;;;;;;;;;5052835;28;20354;-51
2022/07/19 10:06:35;;;;;;;2.25;1.70;;;;;;;;;;5045397;28;20041;-51
2022/07/19 10:09:05;;;;;;;2.53;1.80;;;;;;;;;;5049635;28;20052;-48
2022/07/19 10:11:32;;;;;;;2.28;1.42;;;;;;;;;;5053331;28;20096;-50
2022/07/19 10:13:58;;;;;;;3.05;1.65;;;;;;;;;;5052759;28;20024;-45
2022/07/19 10:16:32;;;;;;;3.22;1.40;;;;;;;;;;5053405;28;21219;-51
2022/07/19 10:19:16;;;;;;;2.75;1.58;;;;;;;;;;5052421;28;20025;-45
2022/07/19 10:21:43;;;;;;;2.22;1.60;;;;;;;;;;5053291;28;20021;-50
2022/07/19 10:24:09;;;;;;;3.50;1.67;;;;;;;;;;5052232;28;20059;-49
2022/07/19 10:26:39;;;;;;;2.72;1.60;;;;;;;;;;5052799;28;20417;-51
2022/07/19 10:29:09;;;;;;;3.75;1.52;;;;;;;;;;5051424;28;20032;-51
2022/07/19 10:31:35;;;;;;;2.55;1.33;;;;;;;;;;5053078;28;20374;-51
2022/07/19 10:34:08;;;;;;;2.13;1.52;;;;;;;;;;5052156;28;20041;-53
2022/07/19 10:36:34;;;;;;;2.45;1.60;;;;;;;;;;5053248;28;20032;-50
2022/07/19 10:39:19;;;;;;;1.98;1.50;;;;;;;;;;5052177;28;20029;-48
2022/07/19 10:42:04;;;;;;;2.72;1.35;;;;;;;;;;5050964;28;20079;-48
2022/07/19 10:44:30;;;;;;;3.17;1.80;;;;;;;;;;5047627;28;20071;-54
2022/07/19 10:46:56;;;;;;;3.20;1.30;;;;;;;;;;5049529;28;20029;-53
2022/07/19 10:49:40;;;;;;;2.10;1.40;;;;;;;;;;5051903;28;20474;-50
2022/07/19 10:52:25;;;;;;;2.10;1.40;;;;;;;;;;5051421;28;20418;-49
2022/07/19 10:55:09;;;;;;;1.92;1.35;;;;;;;;;;5052794;28;20040;-52
2022/07/19 10:57:40;;;;;;;1.65;1.30;;;;;;;;;;5047941;28;20155;-53
2022/07/19 11:00:19;;;;;;;3.60;1.50;;;;;;;;;;5050533;28;20025;-52
2022/07/19 11:02:46;;;;;;;1.77;1.30;;;;;;;;;;5052383;28;20527;-50
2022/07/19 11:05:21;;;;;;;1.67;1.35;;;;;;;;;;5051360;28;20133;-51
2022/07/19 11:07:51;;;;;;;2.33;1.30;;;;;;;;;;5052594;28;20036;-51
2022/07/19 11:10:25;;;;;;;2.78;1.52;;;;;;;;;;5051437;28;20033;-52
2022/07/19 11:12:51;;;;;;;1.65;1.23;;;;;;;;;;5047867;28;20021;-53
2022/07/19 11:15:17;;;;;;;2.95;2.25;;;;;;;;;;5055713;28;20025;-54
2022/07/19 11:17:56;;;;;;;1.80;1.20;;;;;;;;;;5048782;28;20060;-53
2022/07/19 11:20:33;;;;;;;2.00;1.35;;;;;;;;;;5050888;28;20028;-53
2022/07/19 11:23:00;;;;;;;2.97;1.23;;;;;;;;;;5045972;28;20108;-47
2022/07/19 11:25:30;;;;;;;2.08;1.63;;;;;;;;;;5051707;28;20024;-53
2022/07/19 11:27:57;;;;;;;2.42;1.50;;;;;;;;;;5043863;28;20112;-55
2022/07/19 11:30:24;;;;;;;2.08;1.38;;;;;;;;;;5046485;28;20033;-54
2022/07/19 11:32:54;;;;;;;2.85;1.35;;;;;;;;;;5051738;28;20051;-55
2022/07/19 11:35:20;;;;;;;2.20;1.30;;;;;;;;;;5047370;28;20021;-54
2022/07/19 11:37:47;;;;;;;2.10;1.10;;;;;;;;;;5052126;28;20059;-54
2022/07/19 11:40:13;;;;;;;4.18;1.52;;;;;;;;;;5050797;28;20032;-56
2022/07/19 11:42:49;;;;;;;2.28;1.52;;;;;;;;;;5057515;28;20021;-51
2022/07/19 11:45:25;;;;;;;2.92;1.85;;;;;;;;;;5050302;28;20100;-54
2022/07/19 11:47:54;;;;;;;2.33;1.45;;;;;;;;;;5043562;28;20048;-55
2022/07/19 11:50:24;;;;;;;4.03;1.60;;;;;;;;;;5050277;28;20021;-55
2022/07/19 11:52:51;;;;;;;5.28;1.65;;;;;;;;;;5051582;28;20094;-54
2022/07/19 11:55:19;;;;;;;2.78;1.20;;;;;;;;;;5050473;28;20021;-53
2022/07/19 11:57:45;;;;;;;3.58;1.65;;;;;;;;;;5043192;28;20473;-53
2022/07/19 12:00:12;;;;;;;2.00;1.60;;;;;;;;;;5037832;28;20029;-54
2022/07/19 12:02:51;;;;;;;2.28;1.35;;;;;;;;;;5042215;28;20116;-49
2022/07/19 12:05:17;;;;;;;2.65;1.50;;;;;;;;;;5049632;28;20060;-51
2022/07/19 12:07:50;;;;;;;1.65;1.20;;;;;;;;;;5050615;28;20029;-55
2022/07/19 12:10:36;;;;;;;2.33;1.30;;;;;;;;;;5049766;28;20136;-51
2022/07/19 12:13:03;;;;;;;2.63;1.50;;;;;;;;;;5050643;28;20065;-49
2022/07/19 12:15:44;;;;;;;1.65;1.30;;;;;;;;;;5050417;28;20113;-54
2022/07/19 12:18:10;;;;;;;2.47;1.55;;;;;;;;;;5046253;28;20025;-51
2022/07/19 12:20:36;;;;;;;1.58;1.23;;;;;;;;;;5050961;28;20048;-54
2022/07/19 12:23:22;;;;;;;1.92;1.42;;;;;;;;;;5050338;28;20450;-46
2022/07/19 12:25:49;;;;;;;2.08;1.45;;;;;;;;;;5049047;28;20091;-55
2022/07/19 12:28:15;;;;;;;2.13;1.33;;;;;;;;;;5049518;28;20102;-54
2022/07/19 12:30:41;;;;;;;3.05;1.40;;;;;;;;;;5049949;28;20025;-50
2022/07/19 12:33:09;;;;;;;1.95;1.50;;;;;;;;;;5049906;28;20040;-55
2022/07/19 12:35:44;;;;;;;3.63;1.40;;;;;;;;;;5050113;28;20450;-55
2022/07/19 12:38:11;;;;;;;3.83;1.70;;;;;;;;;;5050105;28;20394;-53
2022/07/19 12:40:38;;;;;;;2.25;1.40;;;;;;;;;;5050422;28;20021;-53
2022/07/19 12:43:05;;;;;;;1.40;1.20;;;;;;;;;;5050603;28;20369;-48
2022/07/19 12:45:31;;;;;;;3.05;1.70;;;;;;;;;;5050247;28;20044;-53
2022/07/19 12:47:57;;;;;;;2.22;1.17;;;;;;;;;;5050895;28;20120;-53
2022/07/19 12:50:25;;;;;;;1.35;1.10;;;;;;;;;;5049929;28;20044;-55
2022/07/19 12:52:52;;;;;;;3.38;1.30;;;;;;;;;;5054310;28;20021;-55
2022/07/19 12:55:18;;;;;;;2.58;1.60;;;;;;;;;;5053045;28;20032;-50
2022/07/19 12:57:44;;;;;;;2.33;1.50;;;;;;;;;;5054397;28;20021;-52
2022/07/19 13:00:10;;;;;;;1.95;1.13;;;;;;;;;;5053818;28;20044;-54
2022/07/19 13:02:36;;;;;;;1.30;1.20;;;;;;;;;;5054687;28;20020;-53
2022/07/19 13:05:03;;;;;;;1.30;1.10;;;;;;;;;;5053507;28;20494;-49
2022/07/19 13:07:29;;;;;;;1.63;1.17;;;;;;;;;;5053893;28;20029;-55
2022/07/19 13:09:55;;;;;;;2.30;1.83;;;;;;;;;;5054287;28;20036;-55
2022/07/19 13:12:21;;;;;;;2.05;1.40;;;;;;;;;;5053564;28;20470;-48
2022/07/19 13:14:47;;;;;;;1.33;1.20;;;;;;;;;;5053404;28;20412;-55
2022/07/19 13:17:13;;;;;;;2.85;1.67;;;;;;;;;;5052720;28;20033;-55
2022/07/19 13:19:39;;;;;;;1.90;1.25;;;;;;;;;;5053816;28;20394;-54
2022/07/19 13:22:06;;;;;;;1.77;1.45;;;;;;;;;;5052966;28;20109;-46
2022/07/19 13:24:32;;;;;;;2.45;1.70;;;;;;;;;;5054013;28;20063;-54
2022/07/19 13:26:58;;;;;;;1.98;1.65;;;;;;;;;;5053340;28;20028;-54
2022/07/19 13:29:24;;;;;;;3.60;2.50;;;;;;;;;;5053114;28;20033;-54
2022/07/19 13:31:51;;;;;;;1.90;1.40;;;;;;;;;;5053941;28;20044;-54
2022/07/19 13:34:17;;;;;;;2.38;1.30;;;;;;;;;;5053247;28;20025;-54
2022/07/19 13:36:43;;;;;;;1.67;1.30;;;;;;;;;;5052644;28;20478;-54
2022/07/19 13:39:09;;;;;;;2.65;1.30;;;;;;;;;;5052936;28;20111;-53
2022/07/19 13:41:37;;;;;;;2.67;1.40;;;;;;;;;;5053861;28;20096;-53
2022/07/19 13:44:03;;;;;;;2.00;1.25;;;;;;;;;;5048816;28;20090;-51
2022/07/19 13:46:29;;;;;;;1.90;1.50;;;;;;;;;;5052149;28;20025;-51
2022/07/19 13:48:55;;;;;;;2.95;1.52;;;;;;;;;;5053657;28;20032;-53
2022/07/19 13:51:21;;;;;;;1.92;1.38;;;;;;;;;;5053019;28;20083;-53
2022/07/19 13:53:48;;;;;;;2.33;1.40;;;;;;;;;;5053394;28;20033;-54
2022/07/19 13:56:14;;;;;;;3.53;2.03;;;;;;;;;;5053148;28;20510;-54
2022/07/19 13:58:40;;;;;;;2.60;1.40;;;;;;;;;;5053268;28;20037;-54
2022/07/19 14:01:06;;;;;;;1.83;1.42;;;;;;;;;;5052614;28;20033;-49
2022/07/19 14:03:32;;;;;;;3.58;1.48;;;;;;;;;;5050825;28;20055;-52
2022/07/19 14:05:58;;;;;;;2.58;1.60;;;;;;;;;;5052785;28;20049;-51
2022/07/19 14:08:24;;;;;;;2.80;1.52;;;;;;;;;;5052118;28;20029;-57
2022/07/19 14:10:50;;;;;;;2.25;1.23;;;;;;;;;;5053244;28;20029;-55
2022/07/19 14:13:16;;;;;;;3.22;1.50;;;;;;;;;;5052491;28;20066;-52
2022/07/19 14:15:42;;;;;;;7.57;1.50;;;;;;;;;;5053396;28;20047;-50
2022/07/19 14:18:09;;;;;;;14.88;2.53;;;;;;;;;;5052264;28;20351;-47
2022/07/19 14:20:35;;;;;;;2.45;1.67;;;;;;;;;;5048644;28;20139;-52
2022/07/19 14:23:01;;;;;;;2.95;1.67;;;;;;;;;;5052838;28;20111;-54
2022/07/19 14:25:27;;;;;;;2.35;1.77;;;;;;;;;;5051519;28;20674;-49
2022/07/19 14:27:53;;;;;;;8.68;2.00;;;;;;;;;;5053081;28;20048;-55
2022/07/19 14:30:19;;;;;;;7.18;2.00;;;;;;;;;;5050727;28;20074;-50
2022/07/19 14:32:45;;;;;;;3.13;1.45;;;;;;;;;;5052343;28;20032;-50
2022/07/19 14:35:11;;;;;;;5.30;1.45;;;;;;;;;;5052000;28;20029;-52
2022/07/19 14:37:37;;;;;;;3.00;1.55;;;;;;;;;;5052183;28;20116;-49
2022/07/19 14:40:04;;;;;;;7.47;1.83;;;;;;;;;;5050929;28;20051;-51
2022/07/19 14:42:31;;;;;;;3.45;1.40;;;;;;;;;;5049178;28;20170;-49
2022/07/19 14:44:57;;;;;;;4.88;1.88;;;;;;;;;;5038039;28;20034;-51
2022/07/19 14:47:23;;;;;;;4.18;1.73;;;;;;;;;;5047261;28;20425;-51